sensor_id;sensor_type;location;lat;lon;timestamp;pressure;altitude;pressure_sealevel;temperature;humidity
70182;BME280;60060;42.060;-87.932;2022-07-10T00:01:58;99834.91;;;27.67;22.20
70182;BME280;60060;42.060;-87.932;2022-07-10T00:04:23;99833.41;;;27.82;22.21
70182;BME280;60060;42.060;-87.932;2022-07-10T00:06:49;99834.98;;;27.53;22.26
70182;BME280;60060;42.060;-87.932;2022-07-10T00:09:15;99828.25;;;27.77;22.18
70182;BME280;60060;42.060;-87.932;2022-07-10T00:11:39;99822.98;;;27.78;22.06
70182;BME280;60060;42.060;-87.932;2022-07-10T00:14:05;99828.35;;;27.44;21.97
70182;BME280;60060;42.060;-87.932;2022-07-10T00:16:31;99828.90;;;27.60;21.84
70182;BME280;60060;42.060;-87.932;2022-07-10T00:18:56;99823.23;;;27.33;22.05
70182;BME280;60060;42.060;-87.932;2022-07-10T00:21:22;99824.89;;;27.42;22.54
70182;BME280;60060;42.060;-87.932;2022-07-10T00:23:46;99821.79;;;27.81;22.84
70182;BME280;60060;42.060;-87.932;2022-07-10T00:26:12;99819.67;;;27.80;23.35
70182;BME280;60060;42.060;-87.932;2022-07-10T00:28:38;99821.54;;;28.01;23.46
70182;BME280;60060;42.060;-87.932;2022-07-10T00:31:03;99817.57;;;28.14;23.41
70182;BME280;60060;42.060;-87.932;2022-07-10T00:33:29;99813.95;;;28.23;23.52
70182;BME280;60060;42.060;-87.932;2022-07-10T00:35:54;99812.63;;;28.37;23.52
70182;BME280;60060;42.060;-87.932;2022-07-10T00:38:19;99813.14;;;28.47;23.39
70182;BME280;60060;42.060;-87.932;2022-07-10T00:40:46;99814.91;;;28.25;23.54
70182;BME280;60060;42.060;-87.932;2022-07-10T00:43:10;99816.67;;;28.29;23.56
70182;BME280;60060;42.060;-87.932;2022-07-10T00:45:36;99816.84;;;28.53;24.41
70182;BME280;60060;42.060;-87.932;2022-07-10T00:48:02;99817.21;;;28.14;23.89
70182;BME280;60060;42.060;-87.932;2022-07-10T00:50:27;99815.70;;;28.46;24.18
70182;BME280;60060;42.060;-87.932;2022-07-10T00:52:52;99816.69;;;28.48;23.90
70182;BME280;60060;42.060;-87.932;2022-07-10T00:55:18;99819.15;;;28.50;23.99
70182;BME280;60060;42.060;-87.932;2022-07-10T00:57:43;99822.49;;;28.77;23.88
70182;BME280;60060;42.060;-87.932;2022-07-10T01:00:10;99828.37;;;28.65;23.88
70182;BME280;60060;42.060;-87.932;2022-07-10T01:02:34;99837.41;;;28.68;23.97
70182;BME280;60060;42.060;-87.932;2022-07-10T01:05:00;99838.25;;;28.79;23.85
70182;BME280;60060;42.060;-87.932;2022-07-10T01:07:25;99840.00;;;28.81;24.06
70182;BME280;60060;42.060;-87.932;2022-07-10T01:09:51;99837.58;;;28.52;24.48
70182;BME280;60060;42.060;-87.932;2022-07-10T01:12:17;99836.12;;;28.57;24.11
70182;BME280;60060;42.060;-87.932;2022-07-10T01:14:42;99841.31;;;28.60;24.12
70182;BME280;60060;42.060;-87.932;2022-07-10T01:17:08;99840.98;;;28.70;24.01
70182;BME280;60060;42.060;-87.932;2022-07-10T01:19:32;99839.49;;;28.82;23.94
70182;BME280;60060;42.060;-87.932;2022-07-10T01:21:58;99842.06;;;28.73;24.19
70182;BME280;60060;42.060;-87.932;2022-07-10T01:24:24;99846.33;;;28.82;23.99
70182;BME280;60060;42.060;-87.932;2022-07-10T01:26:49;99852.93;;;28.87;23.95
70182;BME280;60060;42.060;-87.932;2022-07-10T01:29:14;99854.09;;;29.00;24.19
70182;BME280;60060;42.060;-87.932;2022-07-10T01:31:40;99858.14;;;28.83;24.32
70182;BME280;60060;42.060;-87.932;2022-07-10T01:34:07;99861.54;;;28.94;24.58
70182;BME280;60060;42.060;-87.932;2022-07-10T01:36:31;99864.45;;;28.95;24.26
70182;BME280;60060;42.060;-87.932;2022-07-10T01:38:57;99863.91;;;28.95;24.36
70182;BME280;60060;42.060;-87.932;2022-07-10T01:41:22;99862.51;;;28.91;24.25
70182;BME280;60060;42.060;-87.932;2022-07-10T01:43:47;99859.83;;;28.98;24.23
70182;BME280;60060;42.060;-87.932;2022-07-10T01:46:13;99859.10;;;28.99;24.17
70182;BME280;60060;42.060;-87.932;2022-07-10T01:48:39;99859.78;;;29.09;24.13
70182;BME280;60060;42.060;-87.932;2022-07-10T01:51:04;99858.93;;;29.05;24.08
70182;BME280;60060;42.060;-87.932;2022-07-10T01:53:29;99857.92;;;29.10;24.42
70182;BME280;60060;42.060;-87.932;2022-07-10T01:55:54;99858.74;;;29.03;25.27
70182;BME280;60060;42.060;-87.932;2022-07-10T01:58:20;99866.87;;;29.07;25.13
70182;BME280;60060;42.060;-87.932;2022-07-10T02:00:46;99867.09;;;29.35;24.55
70182;BME280;60060;42.060;-87.932;2022-07-10T02:03:11;99865.08;;;29.21;24.23
70182;BME280;60060;42.060;-87.932;2022-07-10T02:05:36;99862.92;;;29.22;24.24
70182;BME280;60060;42.060;-87.932;2022-07-10T02:08:02;99857.34;;;29.25;24.21
70182;BME280;60060;42.060;-87.932;2022-07-10T02:10:28;99852.10;;;29.23;24.31
70182;BME280;60060;42.060;-87.932;2022-07-10T02:12:53;99851.57;;;29.22;24.29
70182;BME280;60060;42.060;-87.932;2022-07-10T02:15:18;99853.25;;;29.24;24.84
70182;BME280;60060;42.060;-87.932;2022-07-10T02:17:44;99857.77;;;29.27;24.86
70182;BME280;60060;42.060;-87.932;2022-07-10T02:20:09;99860.71;;;29.25;24.63
70182;BME280;60060;42.060;-87.932;2022-07-10T02:22:34;99863.12;;;28.97;24.65
70182;BME280;60060;42.060;-87.932;2022-07-10T02:25:00;99865.02;;;29.25;24.61
70182;BME280;60060;42.060;-87.932;2022-07-10T02:27:25;99870.34;;;29.34;24.48
70182;BME280;60060;42.060;-87.932;2022-07-10T02:29:51;99871.43;;;29.39;24.40
70182;BME280;60060;42.060;-87.932;2022-07-10T02:32:16;99867.07;;;29.36;24.46
70182;BME280;60060;42.060;-87.932;2022-07-10T02:34:42;99863.38;;;29.35;24.32
70182;BME280;60060;42.060;-87.932;2022-07-10T02:37:07;99860.87;;;29.09;24.55
70182;BME280;60060;42.060;-87.932;2022-07-10T02:39:33;99860.75;;;29.11;24.55
70182;BME280;60060;42.060;-87.932;2022-07-10T02:41:58;99866.39;;;29.41;25.09
70182;BME280;60060;42.060;-87.932;2022-07-10T02:44:24;99868.70;;;29.45;24.39
70182;BME280;60060;42.060;-87.932;2022-07-10T02:46:49;99872.38;;;29.26;25.31
70182;BME280;60060;42.060;-87.932;2022-07-10T02:49:15;99869.81;;;29.46;25.03
70182;BME280;60060;42.060;-87.932;2022-07-10T02:51:40;99865.08;;;29.51;25.19
70182;BME280;60060;42.060;-87.932;2022-07-10T02:54:06;99866.73;;;29.27;24.98
70182;BME280;60060;42.060;-87.932;2022-07-10T02:56:31;99871.30;;;29.24;24.53
70182;BME280;60060;42.060;-87.932;2022-07-10T02:58:56;99873.22;;;29.43;25.21
70182;BME280;60060;42.060;-87.932;2022-07-10T03:01:22;99868.29;;;29.25;25.33
70182;BME280;60060;42.060;-87.932;2022-07-10T03:03:47;99865.92;;;29.59;25.53
70182;BME280;60060;42.060;-87.932;2022-07-10T03:06:13;99865.57;;;29.62;24.93
70182;BME280;60060;42.060;-87.932;2022-07-10T03:08:38;99869.54;;;29.42;25.47
70182;BME280;60060;42.060;-87.932;2022-07-10T03:11:04;99869.48;;;29.45;24.81
70182;BME280;60060;42.060;-87.932;2022-07-10T03:13:29;99867.76;;;29.79;24.83
70182;BME280;60060;42.060;-87.932;2022-07-10T03:16:00;99862.96;;;29.65;24.86
70182;BME280;60060;42.060;-87.932;2022-07-10T03:18:29;99861.48;;;29.67;24.84
70182;BME280;60060;42.060;-87.932;2022-07-10T03:20:46;99859.97;;;29.70;24.76
70182;BME280;60060;42.060;-87.932;2022-07-10T03:23:11;99857.97;;;30.00;25.42
70182;BME280;60060;42.060;-87.932;2022-07-10T03:25:37;99852.21;;;29.85;24.87
70182;BME280;60060;42.060;-87.932;2022-07-10T03:28:02;99851.68;;;29.69;24.71
70182;BME280;60060;42.060;-87.932;2022-07-10T03:30:27;99856.22;;;29.70;24.68
70182;BME280;60060;42.060;-87.932;2022-07-10T03:32:53;99859.59;;;29.96;24.68
70182;BME280;60060;42.060;-87.932;2022-07-10T03:35:18;99861.54;;;29.94;24.79
70182;BME280;60060;42.060;-87.932;2022-07-10T03:37:44;99866.35;;;29.96;25.23
70182;BME280;60060;42.060;-87.932;2022-07-10T03:40:10;99866.99;;;30.21;25.10
70182;BME280;60060;42.060;-87.932;2022-07-10T03:42:35;99866.35;;;29.85;25.08
70182;BME280;60060;42.060;-87.932;2022-07-10T03:45:00;99859.61;;;29.83;25.31
70182;BME280;60060;42.060;-87.932;2022-07-10T03:47:26;99856.99;;;29.91;24.66
70182;BME280;60060;42.060;-87.932;2022-07-10T03:49:51;99857.67;;;30.17;25.04
70182;BME280;60060;42.060;-87.932;2022-07-10T03:52:16;99857.67;;;29.98;24.70
70182;BME280;60060;42.060;-87.932;2022-07-10T03:54:42;99859.29;;;29.94;25.36
70182;BME280;60060;42.060;-87.932;2022-07-10T03:57:07;99857.49;;;29.93;25.14
70182;BME280;60060;42.060;-87.932;2022-07-10T03:59:33;99857.00;;;30.04;24.68
70182;BME280;60060;42.060;-87.932;2022-07-10T04:01:58;99852.81;;;30.07;24.52
70182;BME280;60060;42.060;-87.932;2022-07-10T04:04:24;99851.05;;;30.06;24.78
70182;BME280;60060;42.060;-87.932;2022-07-10T04:06:49;99851.01;;;30.32;24.59
70182;BME280;60060;42.060;-87.932;2022-07-10T04:09:15;99848.53;;;30.05;25.01
70182;BME280;60060;42.060;-87.932;2022-07-10T04:11:40;99850.37;;;30.05;24.78
70182;BME280;60060;42.060;-87.932;2022-07-10T04:14:06;99850.90;;;30.05;25.05
70182;BME280;60060;42.060;-87.932;2022-07-10T04:16:31;99849.73;;;30.13;24.70
70182;BME280;60060;42.060;-87.932;2022-07-10T04:18:56;99852.27;;;30.10;24.85
70182;BME280;60060;42.060;-87.932;2022-07-10T04:21:22;99851.37;;;30.60;24.71
70182;BME280;60060;42.060;-87.932;2022-07-10T04:23:47;99852.61;;;30.14;24.87
70182;BME280;60060;42.060;-87.932;2022-07-10T04:26:13;99855.24;;;30.09;25.01
70182;BME280;60060;42.060;-87.932;2022-07-10T04:28:38;99860.38;;;30.08;24.82
70182;BME280;60060;42.060;-87.932;2022-07-10T04:31:04;99862.63;;;30.04;25.45
70182;BME280;60060;42.060;-87.932;2022-07-10T04:33:29;99871.38;;;30.03;25.05
70182;BME280;60060;42.060;-87.932;2022-07-10T04:35:54;99875.11;;;30.05;25.04
70182;BME280;60060;42.060;-87.932;2022-07-10T04:38:20;99874.24;;;30.23;25.26
70182;BME280;60060;42.060;-87.932;2022-07-10T04:40:45;99876.97;;;29.73;24.96
70182;BME280;60060;42.060;-87.932;2022-07-10T04:43:11;99879.46;;;30.02;25.28
70182;BME280;60060;42.060;-87.932;2022-07-10T04:45:37;99884.79;;;29.99;25.10
70182;BME280;60060;42.060;-87.932;2022-07-10T04:48:02;99886.48;;;29.97;25.10
70182;BME280;60060;42.060;-87.932;2022-07-10T04:50:27;99888.90;;;29.98;25.14
70182;BME280;60060;42.060;-87.932;2022-07-10T04:52:53;99886.70;;;30.02;25.53
70182;BME280;60060;42.060;-87.932;2022-07-10T04:55:18;99884.82;;;30.34;25.20
70182;BME280;60060;42.060;-87.932;2022-07-10T04:57:44;99887.60;;;30.25;25.16
70182;BME280;60060;42.060;-87.932;2022-07-10T05:00:10;99893.15;;;30.05;25.51
70182;BME280;60060;42.060;-87.932;2022-07-10T05:02:35;99893.83;;;30.00;25.16
70182;BME280;60060;42.060;-87.932;2022-07-10T05:05:00;99895.27;;;29.99;25.19
70182;BME280;60060;42.060;-87.932;2022-07-10T05:07:25;99891.55;;;29.97;25.24
70182;BME280;60060;42.060;-87.932;2022-07-10T05:09:51;99884.64;;;29.98;25.25
70182;BME280;60060;42.060;-87.932;2022-07-10T05:12:16;99882.01;;;30.09;25.13
70182;BME280;60060;42.060;-87.932;2022-07-10T05:14:42;99887.24;;;30.03;25.17
70182;BME280;60060;42.060;-87.932;2022-07-10T05:17:07;99886.14;;;29.99;25.60
70182;BME280;60060;42.060;-87.932;2022-07-10T05:19:33;99884.71;;;30.04;25.31
70182;BME280;60060;42.060;-87.932;2022-07-10T05:21:58;99878.83;;;30.03;25.62
70182;BME280;60060;42.060;-87.932;2022-07-10T05:24:23;99875.19;;;30.08;25.16
70182;BME280;60060;42.060;-87.932;2022-07-10T05:26:49;99876.20;;;30.00;25.27
70182;BME280;60060;42.060;-87.932;2022-07-10T05:29:14;99878.88;;;29.92;25.33
70182;BME280;60060;42.060;-87.932;2022-07-10T05:31:40;99883.13;;;29.86;25.85
70182;BME280;60060;42.060;-87.932;2022-07-10T05:34:05;99880.56;;;30.16;25.36
70182;BME280;60060;42.060;-87.932;2022-07-10T05:36:30;99881.33;;;29.93;25.50
70182;BME280;60060;42.060;-87.932;2022-07-10T05:38:56;99876.24;;;29.88;26.07
70182;BME280;60060;42.060;-87.932;2022-07-10T05:41:22;99869.96;;;29.88;25.64
70182;BME280;60060;42.060;-87.932;2022-07-10T05:43:47;99869.11;;;29.86;25.66
70182;BME280;60060;42.060;-87.932;2022-07-10T05:46:12;99865.19;;;29.85;25.63
70182;BME280;60060;42.060;-87.932;2022-07-10T05:48:38;99862.62;;;29.91;25.57
70182;BME280;60060;42.060;-87.932;2022-07-10T05:51:04;99867.71;;;29.85;25.73
70182;BME280;60060;42.060;-87.932;2022-07-10T05:53:29;99871.70;;;29.91;25.48
70182;BME280;60060;42.060;-87.932;2022-07-10T05:55:54;99873.68;;;29.90;25.34
70182;BME280;60060;42.060;-87.932;2022-07-10T05:58:20;99874.95;;;30.38;25.57
70182;BME280;60060;42.060;-87.932;2022-07-10T06:00:45;99872.52;;;29.86;25.66
70182;BME280;60060;42.060;-87.932;2022-07-10T06:03:11;99872.63;;;29.89;25.92
70182;BME280;60060;42.060;-87.932;2022-07-10T06:05:36;99872.34;;;29.94;25.70
70182;BME280;60060;42.060;-87.932;2022-07-10T06:08:01;99875.33;;;29.94;25.46
70182;BME280;60060;42.060;-87.932;2022-07-10T06:10:27;99870.22;;;29.88;25.62
70182;BME280;60060;42.060;-87.932;2022-07-10T06:12:52;99858.36;;;29.91;25.14
70182;BME280;60060;42.060;-87.932;2022-07-10T06:15:18;99843.98;;;29.87;24.73
70182;BME280;60060;42.060;-87.932;2022-07-10T06:17:43;99832.18;;;29.91;24.30
70182;BME280;60060;42.060;-87.932;2022-07-10T06:20:10;99834.95;;;29.79;23.95
70182;BME280;60060;42.060;-87.932;2022-07-10T06:22:34;99829.69;;;29.32;23.79
70182;BME280;60060;42.060;-87.932;2022-07-10T06:25:02;99825.93;;;29.50;23.60
70182;BME280;60060;42.060;-87.932;2022-07-10T06:27:25;99821.52;;;29.61;23.45
70182;BME280;60060;42.060;-87.932;2022-07-10T06:29:50;99817.73;;;29.47;23.35
70182;BME280;60060;42.060;-87.932;2022-07-10T06:32:16;99811.79;;;29.43;23.73
70182;BME280;60060;42.060;-87.932;2022-07-10T06:34:41;99807.51;;;29.53;24.07
70182;BME280;60060;42.060;-87.932;2022-07-10T06:37:07;99801.08;;;29.36;24.47
70182;BME280;60060;42.060;-87.932;2022-07-10T06:39:34;99801.63;;;29.66;24.81
70182;BME280;60060;42.060;-87.932;2022-07-10T06:41:58;99806.56;;;29.53;24.71
70182;BME280;60060;42.060;-87.932;2022-07-10T06:44:23;99810.28;;;29.81;24.89
70182;BME280;60060;42.060;-87.932;2022-07-10T06:46:48;99813.43;;;29.80;25.11
70182;BME280;60060;42.060;-87.932;2022-07-10T06:49:14;99814.12;;;29.57;25.23
70182;BME280;60060;42.060;-87.932;2022-07-10T06:51:39;99813.17;;;29.37;25.13
70182;BME280;60060;42.060;-87.932;2022-07-10T06:54:05;99818.04;;;29.58;25.01
70182;BME280;60060;42.060;-87.932;2022-07-10T06:56:30;99820.41;;;29.55;25.05
70182;BME280;60060;42.060;-87.932;2022-07-10T06:58:56;99822.43;;;29.83;25.05
70182;BME280;60060;42.060;-87.932;2022-07-10T07:01:21;99822.35;;;29.56;25.12
70182;BME280;60060;42.060;-87.932;2022-07-10T07:03:47;99816.96;;;29.62;25.19
70182;BME280;60060;42.060;-87.932;2022-07-10T07:06:12;99810.18;;;29.36;25.13
70182;BME280;60060;42.060;-87.932;2022-07-10T07:08:38;99804.69;;;29.05;25.45
70182;BME280;60060;42.060;-87.932;2022-07-10T07:11:03;99801.01;;;29.63;25.39
70182;BME280;60060;42.060;-87.932;2022-07-10T07:13:29;99803.60;;;29.52;25.84
70182;BME280;60060;42.060;-87.932;2022-07-10T07:15:54;99810.82;;;29.36;25.23
70182;BME280;60060;42.060;-87.932;2022-07-10T07:18:19;99818.52;;;29.64;25.57
70182;BME280;60060;42.060;-87.932;2022-07-10T07:20:45;99822.50;;;29.58;25.46
70182;BME280;60060;42.060;-87.932;2022-07-10T07:23:10;99822.09;;;29.51;25.61
70182;BME280;60060;42.060;-87.932;2022-07-10T07:25:37;99819.85;;;29.21;25.48
70182;BME280;60060;42.060;-87.932;2022-07-10T07:28:01;99820.57;;;29.44;25.59
70182;BME280;60060;42.060;-87.932;2022-07-10T07:30:27;99817.17;;;29.18;25.72
70182;BME280;60060;42.060;-87.932;2022-07-10T07:32:52;99814.79;;;29.48;25.54
70182;BME280;60060;42.060;-87.932;2022-07-10T07:35:17;99816.39;;;29.29;25.79
70182;BME280;60060;42.060;-87.932;2022-07-10T07:37:44;99816.01;;;29.57;25.50
70182;BME280;60060;42.060;-87.932;2022-07-10T07:40:10;99812.27;;;29.47;25.56
70182;BME280;60060;42.060;-87.932;2022-07-10T07:42:34;99812.77;;;29.38;25.96
70182;BME280;60060;42.060;-87.932;2022-07-10T07:45:00;99812.51;;;29.37;25.68
70182;BME280;60060;42.060;-87.932;2022-07-10T07:47:25;99806.63;;;29.38;25.60
70182;BME280;60060;42.060;-87.932;2022-07-10T07:49:50;99801.39;;;29.43;25.57
70182;BME280;60060;42.060;-87.932;2022-07-10T07:52:16;99797.71;;;29.45;25.52
70182;BME280;60060;42.060;-87.932;2022-07-10T07:54:41;99790.34;;;29.53;25.89
70182;BME280;60060;42.060;-87.932;2022-07-10T07:57:07;99786.26;;;29.57;25.73
70182;BME280;60060;42.060;-87.932;2022-07-10T07:59:32;99785.32;;;29.40;25.47
70182;BME280;60060;42.060;-87.932;2022-07-10T08:01:57;99779.79;;;29.22;25.60
70182;BME280;60060;42.060;-87.932;2022-07-10T08:04:23;99774.90;;;29.16;25.82
70182;BME280;60060;42.060;-87.932;2022-07-10T08:06:48;99766.06;;;29.29;25.70
70182;BME280;60060;42.060;-87.932;2022-07-10T08:09:14;99765.45;;;29.28;24.96
70182;BME280;60060;42.060;-87.932;2022-07-10T08:11:39;99765.76;;;29.35;24.36
70182;BME280;60060;42.060;-87.932;2022-07-10T08:14:05;99762.75;;;29.56;23.96
70182;BME280;60060;42.060;-87.932;2022-07-10T08:16:31;99757.96;;;29.54;23.64
70182;BME280;60060;42.060;-87.932;2022-07-10T08:18:56;99759.95;;;29.13;23.48
70182;BME280;60060;42.060;-87.932;2022-07-10T08:21:21;99759.66;;;29.27;23.37
70182;BME280;60060;42.060;-87.932;2022-07-10T08:23:47;99759.44;;;29.16;23.75
70182;BME280;60060;42.060;-87.932;2022-07-10T08:26:12;99755.17;;;29.25;23.89
70182;BME280;60060;42.060;-87.932;2022-07-10T08:28:38;99744.25;;;29.03;24.42
70182;BME280;60060;42.060;-87.932;2022-07-10T08:38:24;99722.96;;;28.93;25.01
70182;BME280;60060;42.060;-87.932;2022-07-10T08:40:46;99720.32;;;29.13;25.02
70182;BME280;60060;42.060;-87.932;2022-07-10T08:43:10;99720.02;;;29.16;24.85
70182;BME280;60060;42.060;-87.932;2022-07-10T08:45:35;99718.53;;;29.01;24.88
70182;BME280;60060;42.060;-87.932;2022-07-10T08:48:03;99717.15;;;29.20;25.00
70182;BME280;60060;42.060;-87.932;2022-07-10T08:50:29;99716.71;;;29.12;25.11
70182;BME280;60060;42.060;-87.932;2022-07-10T08:52:56;99713.51;;;28.81;25.24
70182;BME280;60060;42.060;-87.932;2022-07-10T08:55:18;99717.15;;;29.02;25.30
70182;BME280;60060;42.060;-87.932;2022-07-10T08:57:43;99718.62;;;28.97;25.47
70182;BME280;60060;42.060;-87.932;2022-07-10T09:00:10;99716.36;;;29.01;25.49
70182;BME280;60060;42.060;-87.932;2022-07-10T09:02:34;99714.46;;;28.94;25.61
70182;BME280;60060;42.060;-87.932;2022-07-10T09:04:59;99714.15;;;28.94;25.85
70182;BME280;60060;42.060;-87.932;2022-07-10T09:07:25;99718.36;;;28.77;25.69
70182;BME280;60060;42.060;-87.932;2022-07-10T09:09:54;99722.56;;;28.97;25.65
70182;BME280;60060;42.060;-87.932;2022-07-10T09:12:16;99723.87;;;28.71;25.70
70182;BME280;60060;42.060;-87.932;2022-07-10T09:14:41;99730.12;;;28.91;25.84
70182;BME280;60060;42.060;-87.932;2022-07-10T09:17:07;99736.28;;;28.94;25.75
70182;BME280;60060;42.060;-87.932;2022-07-10T09:19:32;99734.35;;;28.90;25.81
70182;BME280;60060;42.060;-87.932;2022-07-10T09:22:05;99730.83;;;28.92;25.82
70182;BME280;60060;42.060;-87.932;2022-07-10T09:24:23;99721.11;;;28.70;25.93
70182;BME280;60060;42.060;-87.932;2022-07-10T09:26:59;99712.96;;;29.05;25.96
70182;BME280;60060;42.060;-87.932;2022-07-10T09:29:14;99712.00;;;29.08;25.93
70182;BME280;60060;42.060;-87.932;2022-07-10T09:31:49;99709.04;;;28.84;25.80
70182;BME280;60060;42.060;-87.932;2022-07-10T09:34:05;99707.59;;;29.05;25.87
70182;BME280;60060;42.060;-87.932;2022-07-10T09:36:30;99709.63;;;29.03;26.02
70182;BME280;60060;42.060;-87.932;2022-07-10T09:38:56;99710.82;;;29.00;25.89
70182;BME280;60060;42.060;-87.932;2022-07-10T09:41:24;99713.73;;;28.98;25.94
70182;BME280;60060;42.060;-87.932;2022-07-10T09:43:48;99720.56;;;28.92;26.05
70182;BME280;60060;42.060;-87.932;2022-07-10T09:46:13;99718.11;;;28.91;26.23
70182;BME280;60060;42.060;-87.932;2022-07-10T09:48:37;99718.95;;;28.99;26.12
70182;BME280;60060;42.060;-87.932;2022-07-10T09:51:04;99722.50;;;29.01;26.26
70182;BME280;60060;42.060;-87.932;2022-07-10T09:53:29;99728.28;;;29.03;26.04
70182;BME280;60060;42.060;-87.932;2022-07-10T09:55:55;99729.15;;;29.04;26.02
70182;BME280;60060;42.060;-87.932;2022-07-10T09:58:24;99732.94;;;29.05;26.01
70182;BME280;60060;42.060;-87.932;2022-07-10T10:00:45;99737.78;;;29.02;26.20
70182;BME280;60060;42.060;-87.932;2022-07-10T10:03:11;99746.44;;;28.99;26.13
70182;BME280;60060;42.060;-87.932;2022-07-10T10:05:39;99754.58;;;28.70;26.13
70182;BME280;60060;42.060;-87.932;2022-07-10T10:08:06;99756.03;;;29.02;25.58
70182;BME280;60060;42.060;-87.932;2022-07-10T10:10:27;99756.47;;;29.15;24.84
70182;BME280;60060;42.060;-87.932;2022-07-10T10:12:58;99752.40;;;29.00;24.37
70182;BME280;60060;42.060;-87.932;2022-07-10T10:15:18;99751.59;;;29.02;23.96
70182;BME280;60060;42.060;-87.932;2022-07-10T10:17:44;99749.23;;;29.24;23.59
70182;BME280;60060;42.060;-87.932;2022-07-10T10:20:09;99749.78;;;28.86;23.38
70182;BME280;60060;42.060;-87.932;2022-07-10T10:22:34;99753.95;;;28.96;23.23
70182;BME280;60060;42.060;-87.932;2022-07-10T10:25:01;99752.06;;;28.87;23.16
70182;BME280;60060;42.060;-87.932;2022-07-10T10:27:25;99751.71;;;28.73;23.65
70182;BME280;60060;42.060;-87.932;2022-07-10T10:29:51;99751.09;;;28.81;24.01
70182;BME280;60060;42.060;-87.932;2022-07-10T10:32:16;99753.58;;;28.85;24.49
70182;BME280;60060;42.060;-87.932;2022-07-10T10:34:42;99753.94;;;28.86;24.55
70182;BME280;60060;42.060;-87.932;2022-07-10T10:37:07;99758.13;;;28.92;24.44
70182;BME280;60060;42.060;-87.932;2022-07-10T10:41:57;99756.31;;;28.60;24.72
70182;BME280;60060;42.060;-87.932;2022-07-10T10:44:26;99754.39;;;28.51;24.95
70182;BME280;60060;42.060;-87.932;2022-07-10T10:46:56;99758.48;;;28.49;25.00
70182;BME280;60060;42.060;-87.932;2022-07-10T10:49:14;99766.27;;;28.46;25.17
70182;BME280;60060;42.060;-87.932;2022-07-10T10:54:05;99777.89;;;28.50;25.34
70182;BME280;60060;42.060;-87.932;2022-07-10T10:56:30;99770.05;;;28.48;25.53
70182;BME280;60060;42.060;-87.932;2022-07-10T10:58:56;99769.51;;;28.45;25.50
70182;BME280;60060;42.060;-87.932;2022-07-10T11:01:28;99776.01;;;28.41;25.57
70182;BME280;60060;42.060;-87.932;2022-07-10T11:06:14;99779.70;;;28.57;25.68
70182;BME280;60060;42.060;-87.932;2022-07-10T11:08:40;99776.06;;;28.32;25.76
70182;BME280;60060;42.060;-87.932;2022-07-10T11:13:28;99762.48;;;28.33;25.81
70182;BME280;60060;42.060;-87.932;2022-07-10T11:15:54;99763.12;;;28.40;25.97
70182;BME280;60060;42.060;-87.932;2022-07-10T11:18:20;99769.95;;;28.46;26.30
70182;BME280;60060;42.060;-87.932;2022-07-10T11:20:47;99771.16;;;28.51;26.17
70182;BME280;60060;42.060;-87.932;2022-07-10T11:25:42;99780.10;;;28.58;25.76
70182;BME280;60060;42.060;-87.932;2022-07-10T11:28:06;99783.87;;;28.58;25.77
70182;BME280;60060;42.060;-87.932;2022-07-10T11:30:26;99787.93;;;28.59;25.74
70182;BME280;60060;42.060;-87.932;2022-07-10T11:32:52;99793.58;;;28.56;25.81
70182;BME280;60060;42.060;-87.932;2022-07-10T11:35:18;99792.63;;;28.54;25.86
70182;BME280;60060;42.060;-87.932;2022-07-10T11:37:49;99787.27;;;28.52;25.96
70182;BME280;60060;42.060;-87.932;2022-07-10T11:40:09;99793.59;;;28.31;26.06
70182;BME280;60060;42.060;-87.932;2022-07-10T11:44:59;99796.26;;;28.29;26.00
70182;BME280;60060;42.060;-87.932;2022-07-10T11:47:24;99794.61;;;28.61;25.92
70182;BME280;60060;42.060;-87.932;2022-07-10T11:49:50;99797.27;;;28.62;25.94
70182;BME280;60060;42.060;-87.932;2022-07-10T11:52:15;99804.30;;;28.68;25.87
70182;BME280;60060;42.060;-87.932;2022-07-10T11:54:41;99806.68;;;28.87;25.97
70182;BME280;60060;42.060;-87.932;2022-07-10T11:57:07;99800.03;;;28.69;25.88
70182;BME280;60060;42.060;-87.932;2022-07-10T11:59:32;99794.03;;;28.67;25.87
70182;BME280;60060;42.060;-87.932;2022-07-10T12:01:57;99787.53;;;28.65;26.24
70182;BME280;60060;42.060;-87.932;2022-07-10T12:04:24;99786.59;;;28.39;26.15
70182;BME280;60060;42.060;-87.932;2022-07-10T12:06:49;99792.03;;;28.65;26.04
70182;BME280;60060;42.060;-87.932;2022-07-10T12:09:15;99795.34;;;28.60;26.17
70182;BME280;60060;42.060;-87.932;2022-07-10T12:11:40;99795.74;;;28.60;26.15
70182;BME280;60060;42.060;-87.932;2022-07-10T12:14:11;99797.92;;;28.57;26.16
70182;BME280;60060;42.060;-87.932;2022-07-10T12:16:35;99792.44;;;28.61;26.13
70182;BME280;60060;42.060;-87.932;2022-07-10T12:18:55;99788.63;;;28.66;26.10
70182;BME280;60060;42.060;-87.932;2022-07-10T12:21:21;99790.73;;;28.71;26.06
70182;BME280;60060;42.060;-87.932;2022-07-10T12:23:46;99791.60;;;28.44;26.18
70182;BME280;60060;42.060;-87.932;2022-07-10T12:26:12;99789.25;;;28.70;26.40
70182;BME280;60060;42.060;-87.932;2022-07-10T12:28:50;99793.64;;;28.77;26.22
70182;BME280;60060;42.060;-87.932;2022-07-10T12:31:02;99800.12;;;28.74;26.02
70182;BME280;60060;42.060;-87.932;2022-07-10T12:33:27;99803.45;;;28.75;25.54
70182;BME280;60060;42.060;-87.932;2022-07-10T12:35:55;99803.77;;;29.03;24.87
70182;BME280;60060;42.060;-87.932;2022-07-10T12:38:20;99814.62;;;29.16;24.26
70182;BME280;60060;42.060;-87.932;2022-07-10T12:40:44;99821.89;;;29.11;23.90
70182;BME280;60060;42.060;-87.932;2022-07-10T12:43:09;99822.95;;;29.11;23.60
70182;BME280;60060;42.060;-87.932;2022-07-10T12:45:35;99826.77;;;28.84;23.29
70182;BME280;60060;42.060;-87.932;2022-07-10T12:48:00;99830.37;;;28.69;23.19
70182;BME280;60060;42.060;-87.932;2022-07-10T12:50:26;99834.03;;;28.94;23.71
70182;BME280;60060;42.060;-87.932;2022-07-10T12:53:07;99834.18;;;29.06;24.00